Back to Top

My Weather Underground Personal Weather Station Historical Data with Graphs...

Delerius Weather Station Historical Data
Daily Summary for December 01, 2020 Units:  English    Metric   Both
Daily Weekly Monthly Yearly
  High: Low: Average:
Temperature: 43.5 °F 36.7 °F 39.6 °F
Dew Point: 39.2 °F 34 °F 36.3 °F
Humidity: 91% 84% 88%
Wind Speed: 17.1mph 0mph 8.1mph
Wind Gust: 23mph - -
Wind- - NW
Pressure: 30.3 in 30.2 in -
Precipitation: 0 in    
 
 
Tabular Data for December 01, 2020
Time Temperature Dew Point Pressure Wind Wind Speed Wind Gust Humidity Rainfall Rate (Hourly) solar
00:04 40.3 °F 35.8 °F 30.2 in NW 11.1 mph 16 mph 84% 0 in 0 W/m2
00:09 40.1 °F 36 °F 30.2 in NW 12.1 mph 16 mph 85% 0 in 0 W/m2
00:14 40.1 °F 36 °F 30.2 in WNW 12 mph 16 mph 85% 0 in 0 W/m2
00:19 39.9 °F 35.8 °F 30.2 in NW 12.4 mph 19 mph 85% 0 in 0 W/m2
00:24 39.9 °F 36 °F 30.2 in NW 12.9 mph 19 mph 85% 0 in 0 W/m2
00:29 39.9 °F 35.8 °F 30.2 in NW 13.5 mph 19 mph 85% 0 in 0 W/m2
00:34 40.3 °F 36.1 °F 30.2 in NNW 15.6 mph 23 mph 85% 0 in 0 W/m2
00:39 40.3 °F 36.1 °F 30.2 in NNW 15.3 mph 22 mph 85% 0 in 0 W/m2
00:44 40.3 °F 36.1 °F 30.2 in NW 15 mph 22 mph 85% 0 in 0 W/m2
00:49 40.1 °F 36 °F 30.2 in NW 14.2 mph 20 mph 85% 0 in 0 W/m2
00:54 39.9 °F 35.8 °F 30.2 in NW 14.2 mph 21 mph 85.2% 0 in 0 W/m2
00:59 39.9 °F 36 °F 30.2 in NW 15.9 mph 22 mph 85.6% 0 in 0 W/m2
01:04 40.1 °F 36 °F 30.2 in NNW 16 mph 22 mph 85% 0 in 0 W/m2
01:09 40.3 °F 36.1 °F 30.2 in NW 17.1 mph 21 mph 85% 0 in 0 W/m2
01:14 40.3 °F 36.1 °F 30.2 in NW 15.6 mph 21 mph 85.4% 0 in 0 W/m2
01:19 40.1 °F 36.3 °F 30.2 in NW 14.4 mph 21 mph 85.8% 0 in 0 W/m2
01:24 39.9 °F 36.1 °F 30.2 in NNW 13.5 mph 20 mph 86% 0 in 0 W/m2
01:29 39.9 °F 36.1 °F 30.2 in NW 15.3 mph 23 mph 86% 0 in 0 W/m2
01:34 39.9 °F 36.1 °F 30.2 in NW 14.5 mph 23 mph 86% 0 in 0 W/m2
01:39 39.9 °F 36 °F 30.2 in NNW 14.7 mph 22 mph 86% 0 in 0 W/m2
01:44 39.7 °F 36 °F 30.2 in NW 14.2 mph 19 mph 86% 0 in 0 W/m2
01:49 39.7 °F 36 °F 30.2 in NW 14.2 mph 20 mph 86.4% 0 in 0 W/m2
01:54 39.7 °F 36 °F 30.2 in NW 13.7 mph 20 mph 86.3% 0 in 0 W/m2
01:59 39.6 °F 36 °F 30.2 in NW 13.7 mph 20 mph 87% 0 in 0 W/m2
02:04 39.6 °F 36 °F 30.2 in NNW 14.1 mph 20 mph 87% 0 in 0 W/m2
02:09 39.6 °F 36 °F 30.2 in NNW 14 mph 20 mph 87% 0 in 0 W/m2
02:14 39.4 °F 35.8 °F 30.2 in NW 13.6 mph 18 mph 87% 0 in 0 W/m2
02:19 39.4 °F 35.8 °F 30.2 in NW 13 mph 18 mph 87.1% 0 in 0 W/m2
02:24 39.2 °F 35.8 °F 30.2 in NNW 12.4 mph 16 mph 87.5% 0 in 0 W/m2
02:29 39 °F 35.8 °F 30.2 in NNW 12.2 mph 19 mph 88% 0 in 0 W/m2
02:34 39 °F 35.8 °F 30.2 in NW 13.2 mph 19 mph 88% 0 in 0 W/m2
02:39 39 °F 35.8 °F 30.2 in NW 12.9 mph 19 mph 88% 0 in 0 W/m2
02:44 39 °F 35.8 °F 30.2 in NW 13 mph 16 mph 88% 0 in 0 W/m2
02:49 39 °F 35.8 °F 30.2 in NW 12.4 mph 19 mph 88% 0 in 0 W/m2
02:54 39 °F 35.8 °F 30.2 in NW 13 mph 19 mph 88% 0 in 0 W/m2
02:59 39 °F 35.8 °F 30.2 in NW 13 mph 19 mph 88% 0 in 0 W/m2
03:04 38.8 °F 35.6 °F 30.3 in NW 11.4 mph 16 mph 88% 0 in 0 W/m2
03:09 38.8 °F 35.6 °F 30.3 in NW 12 mph 16 mph 88% 0 in 0 W/m2
03:14 38.8 °F 35.6 °F 30.3 in NW 12.7 mph 19 mph 88% 0 in 0 W/m2
03:19 38.8 °F 35.6 °F 30.3 in NW 12.9 mph 19 mph 88% 0 in 0 W/m2
03:24 38.8 °F 35.6 °F 30.3 in NW 12.4 mph 16 mph 88% 0 in 0 W/m2
03:29 38.8 °F 35.6 °F 30.3 in NW 11.6 mph 16 mph 88% 0 in 0 W/m2
03:34 38.7 °F 35.6 °F 30.3 in NNW 11.7 mph 19 mph 88.6% 0 in 0 W/m2
03:39 38.7 °F 35.6 °F 30.3 in NNW 13.4 mph 22 mph 88.3% 0 in 0 W/m2
03:44 38.8 °F 35.6 °F 30.3 in NNW 12.2 mph 22 mph 88% 0 in 0 W/m2
03:49 38.8 °F 35.6 °F 30.3 in NW 12 mph 15 mph 88% 0 in 0 W/m2
03:54 38.7 °F 35.6 °F 30.3 in NW 11.7 mph 15 mph 88.3% 0 in 0 W/m2
03:59 38.7 °F 35.8 °F 30.3 in NNW 11.3 mph 15 mph 89% 0 in 0 W/m2
04:04 38.5 °F 35.6 °F 30.3 in NNW 10.6 mph 14 mph 89% 0 in 0 W/m2
04:09 38.3 °F 35.2 °F 30.3 in NNW 10.6 mph 13 mph 89% 0 in 0 W/m2
04:14 38.1 °F 35.2 °F 30.3 in NNW 11.2 mph 16 mph 89% 0 in 0 W/m2
04:19 38.3 °F 35.2 °F 30.3 in NNW 11.6 mph 16 mph 89% 0 in 0 W/m2
04:24 38.1 °F 35.2 °F 30.3 in NNW 9.6 mph 12 mph 89% 0 in 0 W/m2
04:29 38.1 °F 35.2 °F 30.3 in NNW 9.6 mph 13 mph 89% 0 in 0 W/m2
04:34 37.9 °F 35.1 °F 30.3 in NNW 9.4 mph 13 mph 89% 0 in 0 W/m2
04:39 37.9 °F 35.1 °F 30.3 in NW 9.6 mph 13 mph 89.6% 0 in 0 W/m2
04:44 37.8 °F 35.1 °F 30.3 in NW 9.9 mph 13 mph 90% 0 in 0 W/m2
04:49 37.8 °F 35.1 °F 30.3 in NW 9.8 mph 15 mph 90% 0 in 0 W/m2
04:54 37.8 °F 35.1 °F 30.3 in NNW 8.8 mph 12 mph 90% 0 in 0 W/m2
04:59 37.8 °F 35.1 °F 30.3 in NW 8.5 mph 12 mph 90% 0 in 0 W/m2
05:04 37.6 °F 34.9 °F 30.3 in NW 8 mph 11 mph 90% 0 in 0 W/m2
05:09 37.4 °F 34.7 °F 30.3 in NW 8.4 mph 13 mph 90% 0 in 0 W/m2
05:14 37.4 °F 34.7 °F 30.3 in NW 8 mph 13 mph 90% 0 in 0 W/m2
05:19 37.4 °F 34.7 °F 30.3 in NW 7.6 mph 11 mph 90% 0 in 0 W/m2
05:24 37.2 °F 34.7 °F 30.3 in NW 8.1 mph 12 mph 90% 0 in 0 W/m2
05:29 37.2 °F 34.5 °F 30.3 in NW 9 mph 12 mph 90% 0 in 0 W/m2
05:34 37.2 °F 34.5 °F 30.3 in NW 8.8 mph 12 mph 90% 0 in 0 W/m2
05:39 37.2 °F 34.5 °F 30.3 in NW 9 mph 13 mph 90% 0 in 0 W/m2
05:44 37.2 °F 34.5 °F 30.3 in NW 9.6 mph 13 mph 90% 0 in 0 W/m2
05:49 37.2 °F 34.5 °F 30.3 in NW 10 mph 14 mph 90% 0 in 0 W/m2
05:54 37.4 °F 34.7 °F 30.3 in NNW 10.4 mph 14 mph 90% 0 in 0 W/m2
05:59 37.4 °F 34.7 °F 30.3 in NNW 10.3 mph 13 mph 90% 0 in 0 W/m2
06:04 37.4 °F 34.7 °F 30.3 in NNW 10 mph 13 mph 90% 0 in 0 W/m2
06:09 37.2 °F 34.5 °F 30.3 in NNW 9.9 mph 13 mph 90% 0 in 0 W/m2
06:14 37.2 °F 34.5 °F 30.3 in NNW 10.4 mph 14 mph 90% 0 in 0 W/m2
06:19 37 °F 34.3 °F 30.3 in NNW 10.4 mph 13 mph 90% 0 in 0 W/m2
06:24 37 °F 34.3 °F 30.3 in NW 10 mph 13 mph 90% 0 in 0 W/m2
06:29 37 °F 34.5 °F 30.3 in NW 10.3 mph 14 mph 90.4% 0 in 0 W/m2
06:34 37.2 °F 34.7 °F 30.3 in NW 10.9 mph 15 mph 90.3% 0 in 0 W/m2
06:39 37.2 °F 34.5 °F 30.3 in NW 10.9 mph 15 mph 90% 0 in 0 W/m2
06:44 37.2 °F 34.5 °F 30.3 in NW 10.3 mph 15 mph 90% 0 in 0 W/m2
06:49 37.2 °F 34.5 °F 30.3 in NW 9.4 mph 12 mph 90% 0 in 0 W/m2
06:54 37.2 °F 34.5 °F 30.3 in NW 8.5 mph 12 mph 90% 0 in 0 W/m2
06:59 37 °F 34.5 °F 30.3 in NW 8.1 mph 12 mph 90% 0 in 0 W/m2
07:04 37 °F 34.3 °F 30.3 in NW 6.6 mph 11 mph 90% 0 in 0 W/m2
07:09 36.9 °F 34.3 °F 30.3 in WNW 6.5 mph 9 mph 90.3% 0 in 0 W/m2
07:14 36.9 °F 34.5 °F 30.3 in WNW 6.8 mph 9 mph 90.8% 0 in 0 W/m2
07:19 36.9 °F 34.2 °F 30.3 in WNW 6 mph 8 mph 90.1% 0 in 0 W/m2
07:24 36.7 °F 34 °F 30.3 in WNW 6 mph 8 mph 90% 0 in 0 W/m2
07:29 36.7 °F 34.3 °F 30.3 in WNW 6.6 mph 9 mph 91% 0 in 0 W/m2
07:34 36.7 °F 34.2 °F 30.3 in WNW 6.7 mph 11 mph 90.8% 0 in 0 W/m2
07:39 36.7 °F 34.3 °F 30.3 in WNW 7.6 mph 10 mph 91% 0 in 0 W/m2
07:44 36.7 °F 34.3 °F 30.3 in NW 7.7 mph 11 mph 91% 0 in 5 W/m2
07:49 36.7 °F 34.2 °F 30.3 in NW 8.2 mph 11 mph 90.5% 0 in 7 W/m2
07:54 36.7 °F 34.3 °F 30.3 in NW 8 mph 11 mph 91% 0 in 9 W/m2
07:59 36.7 °F 34.3 °F 30.3 in NW 8.8 mph 11 mph 91% 0 in 12 W/m2
08:04 36.7 °F 34.3 °F 30.3 in NW 8.1 mph 11 mph 91% 0 in 14 W/m2
08:09 36.7 °F 34.3 °F 30.3 in NW 8 mph 11 mph 91% 0 in 16 W/m2
08:14 36.7 °F 34.3 °F 30.3 in NW 7.8 mph 11 mph 91% 0 in 21 W/m2
08:19 36.7 °F 34.3 °F 30.3 in NW 7.6 mph 10 mph 91% 0 in 23 W/m2
08:24 36.7 °F 34.3 °F 30.3 in NW 7.1 mph 9 mph 91% 0 in 25 W/m2
08:29 36.9 °F 34.5 °F 30.3 in NW 8 mph 11 mph 91% 0 in 25 W/m2
08:34 37 °F 34.7 °F 30.3 in NW 8.4 mph 12 mph 91% 0 in 28 W/m2
08:39 37.4 °F 34.7 °F 30.3 in NW 9.2 mph 13 mph 90% 0 in 30 W/m2
08:44 37.6 °F 34.9 °F 30.3 in NW 9.2 mph 13 mph 90% 0 in 37 W/m2
08:49 37.6 °F 34.9 °F 30.3 in NW 7.8 mph 12 mph 90% 0 in 42 W/m2
08:54 37.8 °F 35.1 °F 30.3 in NW 7.9 mph 11 mph 90% 0 in 39 W/m2
08:59 37.8 °F 34.9 °F 30.3 in NW 8.4 mph 12 mph 89.5% 0 in 35 W/m2
09:04 37.6 °F 34.7 °F 30.3 in NW 8.8 mph 11 mph 89% 0 in 35 W/m2
09:09 37.6 °F 34.5 °F 30.3 in NW 8.5 mph 14 mph 89% 0 in 32 W/m2
09:14 37.6 °F 34.5 °F 30.3 in NW 8.8 mph 14 mph 89% 0 in 44 W/m2
09:19 37.4 °F 34.5 °F 30.3 in NW 8 mph 10 mph 89.1% 0 in 72 W/m2
09:24 37.4 °F 34.7 °F 30.3 in NW 8.4 mph 10 mph 90% 0 in 118 W/m2
09:29 37.6 °F 34.9 °F 30.3 in NW 8.4 mph 13 mph 90% 0 in 128 W/m2
09:34 37.8 °F 35.2 °F 30.3 in NW 9.4 mph 13 mph 90% 0 in 139 W/m2
09:39 37.9 °F 35.4 °F 30.3 in WNW 9.8 mph 13 mph 90% 0 in 144 W/m2
09:44 38.3 °F 35.6 °F 30.3 in WNW 9.2 mph 13 mph 90% 0 in 148 W/m2
09:49 38.5 °F 35.8 °F 30.3 in WNW 10.3 mph 14 mph 89.5% 0 in 153 W/m2
09:54 38.7 °F 35.8 °F 30.3 in NW 10.5 mph 14 mph 89% 0 in 158 W/m2
09:59 38.8 °F 36 °F 30.3 in NW 10.6 mph 14 mph 89% 0 in 163 W/m2
10:04 39 °F 36.1 °F 30.3 in NW 9.8 mph 13 mph 89% 0 in 163 W/m2
10:09 39 °F 36.1 °F 30.3 in NW 10.9 mph 15 mph 88.8% 0 in 172 W/m2
10:14 39.4 °F 36.1 °F 30.3 in NW 11.7 mph 18 mph 88.2% 0 in 181 W/m2
10:19 39.4 °F 36.1 °F 30.3 in NW 11.7 mph 18 mph 88% 0 in 185 W/m2
10:24 39.6 °F 36.1 °F 30.3 in NW 12.2 mph 18 mph 88% 0 in 192 W/m2
10:29 39.6 °F 36.3 °F 30.3 in NW 12.7 mph 18 mph 88% 0 in 192 W/m2
10:34 39.7 °F 36.5 °F 30.3 in NW 11.4 mph 15 mph 88% 0 in 199 W/m2
10:39 39.7 °F 36.3 °F 30.3 in NW 11.9 mph 15 mph 87.2% 0 in 204 W/m2
10:44 39.9 °F 36.5 °F 30.3 in NW 11.1 mph 14 mph 87% 0 in 209 W/m2
10:49 40.3 °F 36.7 °F 30.3 in NW 11.9 mph 18 mph 87% 0 in 214 W/m2
10:54 40.3 °F 36.7 °F 30.3 in NW 11.9 mph 18 mph 87% 0 in 220 W/m2
10:59 40.5 °F 36.9 °F 30.3 in NW 11.3 mph 16 mph 86.9% 0 in 225 W/m2
11:04 40.5 °F 36.9 °F 30.3 in NW 12 mph 16 mph 86.8% 0 in 225 W/m2
11:09 40.6 °F 37 °F 30.3 in NW 12.1 mph 15 mph 87% 0 in 234 W/m2
11:14 40.6 °F 37 °F 30.3 in NW 12 mph 15 mph 86.8% 0 in 243 W/m2
11:19 40.6 °F 36.7 °F 30.3 in NW 11.5 mph 15 mph 86.1% 0 in 128 W/m2
11:24 40.5 °F 36.9 °F 30.3 in NW 10.3 mph 15 mph 86.6% 0 in 237 W/m2
11:29 40.8 °F 37.2 °F 30.3 in NW 11.2 mph 15 mph 87% 0 in 241 W/m2
11:34 41.2 °F 37.6 °F 30.3 in NW 11.4 mph 15 mph 86.8% 0 in 232 W/m2
11:39 41.4 °F 37.4 °F 30.3 in NW 10.8 mph 16 mph 86.1% 0 in 232 W/m2
11:44 41.4 °F 37.6 °F 30.3 in NW 12.3 mph 18 mph 86% 0 in 239 W/m2
11:49 41.5 °F 37.6 °F 30.3 in NW 12 mph 18 mph 85.7% 0 in 241 W/m2
11:54 41.5 °F 37.6 °F 30.3 in NW 11 mph 14 mph 85.7% 0 in 243 W/m2
11:59 41.7 °F 37.8 °F 30.3 in NW 10.6 mph 14 mph 86% 0 in 243 W/m2
12:04 41.9 °F 37.9 °F 30.3 in NW 8.9 mph 13 mph 85.8% 0 in 243 W/m2
12:09 42.1 °F 38.1 °F 30.3 in NW 8.8 mph 13 mph 85.7% 0 in 244 W/m2
12:14 42.1 °F 37.9 °F 30.3 in NW 9.3 mph 13 mph 85.1% 0 in 243 W/m2
12:19 42.3 °F 38.1 °F 30.3 in NW 9.1 mph 13 mph 85.1% 0 in 241 W/m2
12:24 42.4 °F 38.1 °F 30.3 in NW 9.3 mph 13 mph 85% 0 in 241 W/m2
12:29 42.6 °F 38.5 °F 30.3 in NW 7.3 mph 12 mph 85.6% 0 in 239 W/m2
12:34 42.6 °F 38.5 °F 30.3 in NW 7.7 mph 12 mph 85.1% 0 in 237 W/m2
12:39 42.8 °F 38.5 °F 30.3 in WNW 8.1 mph 12 mph 85% 0 in 237 W/m2
12:44 42.8 °F 38.5 °F 30.3 in NW 8.2 mph 11 mph 85% 0 in 227 W/m2
12:49 42.8 °F 38.7 °F 30.3 in WNW 8.2 mph 11 mph 85% 0 in 193 W/m2
12:54 42.6 °F 38.5 °F 30.3 in NW 9 mph 12 mph 85% 0 in 221 W/m2
12:59 42.6 °F 38.5 °F 30.3 in NW 9.3 mph 13 mph 85% 0 in 221 W/m2
13:04 43 °F 38.7 °F 30.3 in NW 9.6 mph 12 mph 84.9% 0 in 216 W/m2
13:09 43 °F 38.5 °F 30.3 in NW 9.6 mph 13 mph 84.1% 0 in 211 W/m2
13:14 43.2 °F 38.7 °F 30.3 in NW 9.9 mph 14 mph 84% 0 in 207 W/m2
13:19 43.2 °F 38.7 °F 30.3 in NW 10.4 mph 14 mph 84% 0 in 200 W/m2
13:24 43.3 °F 38.8 °F 30.3 in NW 9.6 mph 12 mph 84% 0 in 193 W/m2
13:29 43.3 °F 38.8 °F 30.3 in NW 8.7 mph 12 mph 84% 0 in 186 W/m2
13:34 43.5 °F 39.2 °F 30.3 in NW 8.4 mph 12 mph 84.6% 0 in 183 W/m2
13:39 43.5 °F 39 °F 30.3 in NW 9.3 mph 13 mph 84% 0 in 172 W/m2
13:44 43.5 °F 39 °F 30.3 in NW 9 mph 12 mph 84% 0 in 176 W/m2
13:49 43.5 °F 39 °F 30.3 in NW 9.5 mph 12 mph 84% 0 in 176 W/m2
13:54 43.5 °F 39 °F 30.3 in NW 8.8 mph 12 mph 84% 0 in 172 W/m2
13:59 43.5 °F 39.2 °F 30.3 in NW 7.3 mph 10 mph 84.2% 0 in 151 W/m2
14:04 43.5 °F 39 °F 30.3 in WNW 7.8 mph 11 mph 84.1% 0 in 141 W/m2
14:09 43.5 °F 39 °F 30.3 in NW 7.6 mph 11 mph 84% 0 in 135 W/m2
14:14 43.5 °F 39 °F 30.3 in NW 7.9 mph 11 mph 84% 0 in 141 W/m2
14:19 43.5 °F 39 °F 30.3 in WNW 7.6 mph 10 mph 84% 0 in 139 W/m2
14:24 43.5 °F 39 °F 30.3 in WNW 7.6 mph 10 mph 84% 0 in 128 W/m2
14:29 43.3 °F 38.8 °F 30.3 in WNW 7.4 mph 10 mph 84% 0 in 109 W/m2
14:34 43.3 °F 38.8 °F 30.3 in WNW 8.1 mph 13 mph 84% 0 in 97 W/m2
14:39 43.3 °F 38.8 °F 30.3 in WNW 7.8 mph 11 mph 84.4% 0 in 97 W/m2
14:44 43.2 °F 38.8 °F 30.3 in WNW 8 mph 11 mph 84.5% 0 in 88 W/m2
14:49 43.2 °F 38.8 °F 30.3 in WNW 8 mph 10 mph 84.8% 0 in 77 W/m2
14:54 43 °F 38.7 °F 30.3 in WNW 7.6 mph 10 mph 85.1% 0 in 72 W/m2
14:59 42.6 °F 38.7 °F 30.3 in WNW 6.6 mph 8 mph 86% 0 in 67 W/m2
15:04 42.4 °F 38.7 °F 30.3 in WNW 6.4 mph 10 mph 86.5% 0 in 56 W/m2
15:09 42.3 °F 38.7 °F 30.3 in WNW 7 mph 10 mph 87% 0 in 44 W/m2
15:14 42.1 °F 38.5 °F 30.3 in WNW 7 mph 9 mph 87% 0 in 37 W/m2
15:19 41.9 °F 38.3 °F 30.3 in NW 6.8 mph 9 mph 87% 0 in 30 W/m2
15:24 41.7 °F 38.1 °F 30.3 in NW 7 mph 10 mph 87% 0 in 25 W/m2
15:29 41.7 °F 38.1 °F 30.3 in NW 7.6 mph 10 mph 87% 0 in 18 W/m2
15:34 41.7 °F 38.1 °F 30.3 in WNW 8.5 mph 12 mph 86.8% 0 in 14 W/m2
15:39 41.5 °F 37.8 °F 30.3 in NW 7.8 mph 11 mph 86% 0 in 9 W/m2
15:44 41.5 °F 37.8 °F 30.3 in WNW 7 mph 10 mph 86% 0 in 5 W/m2
15:49 41.4 °F 37.4 °F 30.3 in WNW 7 mph 9 mph 86% 0 in 5 W/m2
15:54 41.2 °F 37.6 °F 30.3 in NW 7.8 mph 11 mph 87% 0 in 0 W/m2
15:59 41.2 °F 37.6 °F 30.3 in NW 9 mph 12 mph 87% 0 in 0 W/m2
16:04 41.2 °F 37.6 °F 30.3 in NW 8.9 mph 12 mph 87% 0 in 0 W/m2
16:09 41 °F 37.4 °F 30.3 in NW 8.3 mph 12 mph 87% 0 in 0 W/m2
16:14 41 °F 37.4 °F 30.3 in NW 8.8 mph 12 mph 87% 0 in 0 W/m2
16:19 40.8 °F 37.2 °F 30.3 in NW 8 mph 10 mph 87% 0 in 0 W/m2
16:24 40.8 °F 37.2 °F 30.3 in NW 8 mph 10 mph 87% 0 in 0 W/m2
16:29 40.6 °F 36.9 °F 30.3 in NW 7 mph 9 mph 86.3% 0 in 0 W/m2
16:34 40.5 °F 36.9 °F 30.3 in NW 7 mph 9 mph 87% 0 in 0 W/m2
16:39 40.5 °F 36.9 °F 30.3 in NNW 7 mph 9 mph 87% 0 in 0 W/m2
16:44 40.5 °F 36.9 °F 30.3 in NNW 6.9 mph 9 mph 87% 0 in 0 W/m2
16:49 40.5 °F 36.9 °F 30.3 in NNW 6.8 mph 9 mph 87% 0 in 0 W/m2
16:54 40.5 °F 36.9 °F 30.3 in NNW 6.3 mph 8 mph 87% 0 in 0 W/m2
16:59 40.3 °F 36.7 °F 30.3 in NNW 5.2 mph 8 mph 87% 0 in 0 W/m2
17:04 40.1 °F 36.7 °F 30.3 in NNW 6.3 mph 8 mph 87.7% 0 in 0 W/m2
17:09 39.9 °F 36.7 °F 30.3 in NNW 7 mph 8 mph 88% 0 in 0 W/m2
17:14 39.9 °F 36.7 °F 30.3 in NNW 6.8 mph 8 mph 88% 0 in 0 W/m2
17:19 39.9 °F 36.7 °F 30.3 in NNW 6 mph 8 mph 88% 0 in 0 W/m2
17:24 39.9 °F 36.7 °F 30.3 in NW 5.6 mph 7 mph 88.1% 0 in 0 W/m2
17:29 39.9 °F 36.9 °F 30.3 in NW 5 mph 7 mph 89% 0 in 0 W/m2
17:34 39.9 °F 36.9 °F 30.3 in NW 5.2 mph 7 mph 89% 0 in 0 W/m2
17:39 39.9 °F 36.9 °F 30.3 in NW 6 mph 8 mph 89% 0 in 0 W/m2
17:44 39.9 °F 36.9 °F 30.3 in NW 6 mph 8 mph 89% 0 in 0 W/m2
17:49 40.1 °F 37 °F 30.3 in NW 6 mph 8 mph 89% 0 in 0 W/m2
17:54 40.1 °F 37 °F 30.3 in NW 6 mph 9 mph 89% 0 in 0 W/m2
17:59 40.1 °F 37 °F 30.3 in NW 5.3 mph 9 mph 88.5% 0 in 0 W/m2
18:04 39.9 °F 36.9 °F 30.3 in NW 3.3 mph 6 mph 88.8% 0 in 0 W/m2
18:09 39.9 °F 36.9 °F 30.3 in NW 4.2 mph 6 mph 89% 0 in 0 W/m2
18:14 39.9 °F 36.9 °F 30.3 in NW 5 mph 7 mph 89% 0 in 0 W/m2
18:19 40.1 °F 37 °F 30.3 in NW 5.1 mph 7 mph 88.7% 0 in 0 W/m2
18:24 40.3 °F 37 °F 30.3 in NW 5.3 mph 7 mph 88% 0 in 0 W/m2
18:29 40.3 °F 37 °F 30.3 in NW 4 mph 6 mph 88% 0 in 0 W/m2
18:34 40.1 °F 36.9 °F 30.3 in NW 4 mph 5 mph 88% 0 in 0 W/m2
18:39 40.1 °F 36.9 °F 30.3 in NW 4.4 mph 6 mph 88% 0 in 0 W/m2
18:44 39.9 °F 36.7 °F 30.3 in NW 5 mph 6 mph 88% 0 in 0 W/m2
18:49 39.9 °F 36.7 °F 30.3 in NW 6 mph 7 mph 88% 0 in 0 W/m2
18:54 40.1 °F 36.9 °F 30.3 in NW 6.1 mph 8 mph 88% 0 in 0 W/m2
18:59 40.1 °F 36.9 °F 30.3 in WNW 5.7 mph 7 mph 88% 0 in 0 W/m2
19:04 39.7 °F 36.5 °F 30.3 in WNW 5 mph 7 mph 88% 0 in 0 W/m2
19:09 39.6 °F 36.3 °F 30.3 in WNW 5.7 mph 7 mph 88.3% 0 in 0 W/m2
19:14 39.6 °F 36.7 °F 30.3 in WNW 6.5 mph 8 mph 89% 0 in 0 W/m2
19:19 39.7 °F 36.9 °F 30.3 in WNW 7 mph 8 mph 89% 0 in 0 W/m2
19:24 39.7 °F 36.9 °F 30.3 in WNW 6.3 mph 8 mph 89% 0 in 0 W/m2
19:29 39.7 °F 36.7 °F 30.3 in NW 6.5 mph 8 mph 89% 0 in 0 W/m2
19:34 39.6 °F 36.7 °F 30.3 in WNW 5.9 mph 8 mph 89% 0 in 0 W/m2
19:39 39.6 °F 36.5 °F 30.3 in WNW 5.8 mph 7 mph 89% 0 in 0 W/m2
19:44 39.6 °F 36.5 °F 30.3 in WNW 6 mph 7 mph 89% 0 in 0 W/m2
19:49 39.6 °F 36.5 °F 30.3 in WNW 3.9 mph 6 mph 89% 0 in 0 W/m2
19:54 39.4 °F 36.3 °F 30.3 in WNW 3.7 mph 6 mph 89% 0 in 0 W/m2
19:59 39.4 °F 36.3 °F 30.3 in West 5.3 mph 6 mph 89% 0 in 0 W/m2
20:04 39 °F 36.1 °F 30.3 in West 5 mph 7 mph 89.1% 0 in 0 W/m2
20:09 39 °F 36.3 °F 30.3 in West 5.2 mph 7 mph 90% 0 in 0 W/m2
20:14 39.2 °F 36.5 °F 30.3 in West 5.2 mph 8 mph 90% 0 in 0 W/m2
20:19 39.4 °F 36.7 °F 30.3 in West 6 mph 7 mph 90% 0 in 0 W/m2
20:24 39.2 °F 36.3 °F 30.3 in West 4.8 mph 7 mph 89.6% 0 in 0 W/m2
20:29 39.2 °F 36.5 °F 30.3 in West 5 mph 7 mph 90% 0 in 0 W/m2
20:34 39.2 °F 36.5 °F 30.3 in West 4.8 mph 7 mph 90% 0 in 0 W/m2
20:39 39.2 °F 36.5 °F 30.3 in West 3.2 mph 5 mph 90% 0 in 0 W/m2
20:44 39.2 °F 36.5 °F 30.3 in West 2.9 mph 5 mph 90% 0 in 0 W/m2
20:49 39 °F 36.3 °F 30.3 in West 3.4 mph 5 mph 90% 0 in 0 W/m2
20:54 39 °F 36.3 °F 30.3 in WNW 2.4 mph 5 mph 90% 0 in 0 W/m2
20:59 39.2 °F 36.5 °F 30.3 in WNW 0.5 mph 3 mph 90% 0 in 0 W/m2
21:04 39.2 °F 36.5 °F 30.3 in WNW 2 mph 3 mph 90% 0 in 0 W/m2
21:09 39 °F 36.3 °F 30.3 in WNW 0.4 mph 3 mph 90% 0 in 0 W/m2
21:14 39 °F 36.3 °F 30.3 in WNW 0.6 mph 2 mph 90% 0 in 0 W/m2
21:19 39.2 °F 36.5 °F 30.3 in Calm   2 mph 90% 0 in 0 W/m2
21:24 39 °F 36.3 °F 30.3 in Calm     90% 0 in 0 W/m2
21:29 39 °F 36.3 °F 30.3 in Calm     90% 0 in 0 W/m2
21:34 38.8 °F 36.1 °F 30.3 in Calm     89.8% 0 in 0 W/m2
21:39 38.8 °F 36.1 °F 30.3 in Calm     90% 0 in 0 W/m2
21:44 38.7 °F 36 °F 30.3 in Calm     90% 0 in 0 W/m2
21:49 38.5 °F 35.8 °F 30.3 in WNW 0.5 mph 2 mph 90% 0 in 0 W/m2
21:54 38.7 °F 36.1 °F 30.3 in WNW 1 mph 2 mph 90.2% 0 in 0 W/m2
21:59 39.2 °F 36.5 °F 30.3 in WNW 0.2 mph 1 mph 90.1% 0 in 0 W/m2
22:04 39.4 °F 36.7 °F 30.3 in Calm   1 mph 89.7% 0 in 0 W/m2
22:09 39.6 °F 36.5 °F 30.3 in WNW 0.9 mph 2 mph 89% 0 in 0 W/m2
22:14 39.7 °F 36.7 °F 30.3 in Calm   2 mph 89% 0 in 0 W/m2
22:19 39.7 °F 36.7 °F 30.3 in WNW 0.2 mph 2 mph 88.7% 0 in 0 W/m2
22:24 39.6 °F 36.3 °F 30.3 in WNW 1.9 mph 4 mph 88% 0 in 0 W/m2
22:29 39.4 °F 36.1 °F 30.3 in WNW 3.4 mph 5 mph 88% 0 in 0 W/m2
22:34 39.2 °F 36 °F 30.3 in WNW 2.3 mph 5 mph 88.5% 0 in 0 W/m2
22:39 39.2 °F 36.3 °F 30.3 in WNW 1.4 mph 3 mph 89% 0 in 0 W/m2
22:44 39.4 °F 36.3 °F 30.3 in WNW 1.8 mph 3 mph 89% 0 in 0 W/m2
22:49 39.4 °F 36.1 °F 30.3 in West 2.4 mph 4 mph 88.1% 0 in 0 W/m2
22:54 39.4 °F 36 °F 30.3 in West 2.4 mph 4 mph 88% 0 in 0 W/m2
22:59 39.2 °F 36 °F 30.3 in West 2.7 mph 4 mph 88% 0 in 0 W/m2
23:04 39 °F 36 °F 30.3 in West 1.4 mph 4 mph 88.4% 0 in 0 W/m2
23:09 38.8 °F 35.8 °F 30.3 in West 1.8 mph 4 mph 88.7% 0 in 0 W/m2
23:14 38.8 °F 36 °F 30.3 in West 0.2 mph 2 mph 89% 0 in 0 W/m2
23:19 38.7 °F 35.8 °F 30.3 in West 0.8 mph 4 mph 89% 0 in 0 W/m2
23:24 38.8 °F 36 °F 30.3 in West 3.8 mph 5 mph 89.5% 0 in 0 W/m2
23:29 39 °F 36.1 °F 30.3 in West 3.5 mph 5 mph 89.4% 0 in 0 W/m2
23:34 39.2 °F 36.1 °F 30.3 in West 0.7 mph 4 mph 89% 0 in 0 W/m2
23:39 39 °F 36 °F 30.3 in South 1.9 mph 5 mph 88.4% 0 in 0 W/m2
23:44 38.8 °F 35.8 °F 30.3 in South 0.4 mph 4 mph 88.9% 0 in 0 W/m2
23:49 38.7 °F 35.8 °F 30.3 in Calm   1 mph 89% 0 in 0 W/m2
23:54 38.5 °F 35.6 °F 30.3 in Calm   2 mph 89.2% 0 in 0 W/m2
23:59 38.5 °F 35.8 °F 30.3 in Calm     90% 0 in 0 W/m2
North Lincolnshire Weather
Compliments of Weather Underground - 2 mb

Data updates at regular intervals.